Terminal Aerodrome Forecast
Issued by NWS

Home | Current Version | Previous Version | Text Only | Print | Product List | Glossary On
Versions: 1 2 3 4 5 6 7 8 9 10 11 12 13 14 15 16 17
651
FTUS46 KSTO 231720
TAFSMF
TAF
KSMF 231720Z 2318/2418 20007KT P6SM BKN250
      TEMPO 2318/2320 6SM BR BKN007
     FM240300 18009KT P6SM OVC100
     FM241000 16012KT P6SM -RA OVC050
     FM241500 15014G20KT 5SM -RA OVC025=

USA.gov is the U.S. government's official web portal to all federal, state and local government web resources and services.